sensor_id;sensor_type;location;lat;lon;timestamp;pressure;altitude;pressure_sealevel;temperature;humidity
11643;BME280;5877;50.930;6.918;2023-03-02T00:03:25;101696.06;;;0.64;59.17
11643;BME280;5877;50.930;6.918;2023-03-02T00:08:18;101650.72;;;-0.05;59.69
11643;BME280;5877;50.930;6.918;2023-03-02T00:13:11;101526.31;;;-0.53;59.64
11643;BME280;5877;50.930;6.918;2023-03-02T00:18:03;101706.53;;;0.52;60.35
11643;BME280;5877;50.930;6.918;2023-03-02T00:22:54;101705.13;;;0.48;60.64
11643;BME280;5877;50.930;6.918;2023-03-02T00:27:46;101620.47;;;-0.14;60.19
11643;BME280;5877;50.930;6.918;2023-03-02T00:32:38;101361.06;;;-1.84;61.18
11643;BME280;5877;50.930;6.918;2023-03-02T00:37:30;101608.50;;;-0.38;61.73
11643;BME280;5877;50.930;6.918;2023-03-02T00:42:22;101710.19;;;0.27;61.61
11643;BME280;5877;50.930;6.918;2023-03-02T00:47:14;101575.66;;;-0.58;62.30
11643;BME280;5877;50.930;6.918;2023-03-02T00:52:05;101564.97;;;-0.64;61.85
11643;BME280;5877;50.930;6.918;2023-03-02T00:56:57;101691.06;;;-0.04;62.65
11643;BME280;5877;50.930;6.918;2023-03-02T01:01:49;101548.22;;;-0.81;62.80
11643;BME280;5877;50.930;6.918;2023-03-02T01:06:49;101708.41;;;0.16;62.42
11643;BME280;5877;50.930;6.918;2023-03-02T01:11:41;101082.50;;;-3.81;63.11
11643;BME280;5877;50.930;6.918;2023-03-02T01:16:33;101694.09;;;0.01;63.42
11643;BME280;5877;50.930;6.918;2023-03-02T01:21:26;101684.38;;;-0.07;63.74
11643;BME280;5877;50.930;6.918;2023-03-02T01:26:18;101565.75;;;-0.98;64.03
11643;BME280;5877;50.930;6.918;2023-03-02T01:31:12;101679.56;;;-0.11;64.50
11643;BME280;5877;50.930;6.918;2023-03-02T01:36:04;101516.06;;;-1.11;64.25
11643;BME280;5877;50.930;6.918;2023-03-02T01:40:56;101660.00;;;-0.14;64.09
11643;BME280;5877;50.930;6.918;2023-03-02T01:45:54;101651.19;;;-0.11;63.70
11643;BME280;5877;50.930;6.918;2023-03-02T01:51:04;101649.44;;;-0.11;63.99
11643;BME280;5877;50.930;6.918;2023-03-02T01:55:59;101642.63;;;-0.12;64.20
11643;BME280;5877;50.930;6.918;2023-03-02T02:00:53;101325.56;;;-2.14;63.98
11643;BME280;5877;50.930;6.918;2023-03-02T02:05:57;101521.59;;;-0.93;64.68
11643;BME280;5877;50.930;6.918;2023-03-02T02:10:52;101635.34;;;-0.18;65.11
11643;BME280;5877;50.930;6.918;2023-03-02T02:15:44;101392.22;;;-1.65;64.28
11643;BME280;5877;50.930;6.918;2023-03-02T02:20:39;101534.03;;;-0.87;64.56
11643;BME280;5877;50.930;6.918;2023-03-02T02:30:26;101466.13;;;-1.32;65.08
11643;BME280;5877;50.930;6.918;2023-03-02T02:35:21;101288.94;;;-2.53;65.30
11643;BME280;5877;50.930;6.918;2023-03-02T02:40:21;101435.09;;;-1.42;65.68
11643;BME280;5877;50.930;6.918;2023-03-02T02:45:18;101620.69;;;-0.28;65.41
11643;BME280;5877;50.930;6.918;2023-03-02T02:50:20;101628.78;;;-0.33;65.98
11643;BME280;5877;50.930;6.918;2023-03-02T02:55:19;101534.59;;;-0.94;65.94
11643;BME280;5877;50.930;6.918;2023-03-02T03:00:18;101621.75;;;-0.42;65.43
11643;BME280;5877;50.930;6.918;2023-03-02T03:05:13;101558.63;;;-1.29;66.19
11643;BME280;5877;50.930;6.918;2023-03-02T03:10:37;101468.66;;;-1.54;66.37
11643;BME280;5877;50.930;6.918;2023-03-02T03:15:31;101417.22;;;-1.78;66.36
11643;BME280;5877;50.930;6.918;2023-03-02T03:20:25;101626.75;;;-0.52;67.02
11643;BME280;5877;50.930;6.918;2023-03-02T03:25:18;101311.69;;;-2.36;66.46
11643;BME280;5877;50.930;6.918;2023-03-02T03:30:13;101542.22;;;-0.93;65.71
11643;BME280;5877;50.930;6.918;2023-03-02T03:35:06;101099.03;;;-3.98;66.23
11643;BME280;5877;50.930;6.918;2023-03-02T03:40:02;101514.59;;;-1.37;66.72
11643;BME280;5877;50.930;6.918;2023-03-02T03:44:55;101503.03;;;-1.55;67.11
11643;BME280;5877;50.930;6.918;2023-03-02T03:49:47;101608.44;;;-0.71;67.21
11643;BME280;5877;50.930;6.918;2023-03-02T03:54:40;101154.00;;;-3.52;66.63
11643;BME280;5877;50.930;6.918;2023-03-02T03:59:32;101621.69;;;-0.64;67.32
11643;BME280;5877;50.930;6.918;2023-03-02T04:04:31;101581.00;;;-0.83;67.15
11643;BME280;5877;50.930;6.918;2023-03-02T04:09:26;101584.97;;;-0.90;67.12
11643;BME280;5877;50.930;6.918;2023-03-02T04:14:21;101607.63;;;-0.72;67.08
11643;BME280;5877;50.930;6.918;2023-03-02T04:19:14;101558.91;;;-1.10;66.98
11643;BME280;5877;50.930;6.918;2023-03-02T04:24:12;101293.50;;;-2.80;66.91
11643;BME280;5877;50.930;6.918;2023-03-02T04:29:05;101513.38;;;-1.44;67.23
11643;BME280;5877;50.930;6.918;2023-03-02T04:33:59;101444.75;;;-1.91;68.15
11643;BME280;5877;50.930;6.918;2023-03-02T04:38:56;101406.19;;;-2.15;68.02
11643;BME280;5877;50.930;6.918;2023-03-02T04:43:48;101550.78;;;-1.27;67.60
11643;BME280;5877;50.930;6.918;2023-03-02T04:48:40;101569.56;;;-1.14;68.11
11643;BME280;5877;50.930;6.918;2023-03-02T04:53:32;101543.00;;;-1.39;68.90
11643;BME280;5877;50.930;6.918;2023-03-02T04:58:23;101555.06;;;-1.39;68.59
11643;BME280;5877;50.930;6.918;2023-03-02T05:03:16;101336.75;;;-2.74;69.31
11643;BME280;5877;50.930;6.918;2023-03-02T05:08:07;101570.81;;;-1.20;69.23
11643;BME280;5877;50.930;6.918;2023-03-02T05:12:59;101390.22;;;-2.32;69.82
11643;BME280;5877;50.930;6.918;2023-03-02T05:17:56;101368.28;;;-2.48;69.27
11643;BME280;5877;50.930;6.918;2023-03-02T05:22:48;101580.41;;;-1.22;68.84
11643;BME280;5877;50.930;6.918;2023-03-02T05:27:40;101609.72;;;-1.12;69.02
11643;BME280;5877;50.930;6.918;2023-03-02T05:32:31;101207.59;;;-3.61;68.47
11643;BME280;5877;50.930;6.918;2023-03-02T05:37:23;101433.66;;;-2.40;69.59
11643;BME280;5877;50.930;6.918;2023-03-02T05:42:15;101438.88;;;-2.41;69.32
11643;BME280;5877;50.930;6.918;2023-03-02T05:47:07;101114.97;;;-4.31;69.79
11643;BME280;5877;50.930;6.918;2023-03-02T05:51:58;101618.00;;;-1.19;70.09
11643;BME280;5877;50.930;6.918;2023-03-02T05:56:50;101442.13;;;-2.26;70.12
11643;BME280;5877;50.930;6.918;2023-03-02T06:01:42;101623.38;;;-1.22;69.79
11643;BME280;5877;50.930;6.918;2023-03-02T06:06:34;101635.31;;;-1.21;70.53
11643;BME280;5877;50.930;6.918;2023-03-02T06:11:26;101515.81;;;-1.78;69.92
11643;BME280;5877;50.930;6.918;2023-03-02T06:16:18;101543.53;;;-1.57;70.07
11643;BME280;5877;50.930;6.918;2023-03-02T06:21:10;101517.72;;;-1.69;69.81
11643;BME280;5877;50.930;6.918;2023-03-02T06:26:11;101636.94;;;-0.96;69.89
11643;BME280;5877;50.930;6.918;2023-03-02T06:31:03;101353.41;;;-2.56;69.27
11643;BME280;5877;50.930;6.918;2023-03-02T06:35:55;101137.06;;;-3.79;69.18
11643;BME280;5877;50.930;6.918;2023-03-02T06:40:47;101631.66;;;-0.71;69.85
11643;BME280;5877;50.930;6.918;2023-03-02T06:45:39;101622.53;;;-0.64;69.33
11643;BME280;5877;50.930;6.918;2023-03-02T06:50:32;101630.88;;;-0.49;68.77
11643;BME280;5877;50.930;6.918;2023-03-02T06:55:24;101600.59;;;-0.70;68.69
11643;BME280;5877;50.930;6.918;2023-03-02T07:00:17;101500.38;;;-1.08;68.91
11643;BME280;5877;50.930;6.918;2023-03-02T07:05:16;101521.97;;;-0.86;67.49
11643;BME280;5877;50.930;6.918;2023-03-02T07:10:09;101444.41;;;-1.17;65.78
11643;BME280;5877;50.930;6.918;2023-03-02T07:15:04;101647.88;;;0.20;65.38
11643;BME280;5877;50.930;6.918;2023-03-02T07:20:03;101483.09;;;-0.72;65.25
11643;BME280;5877;50.930;6.918;2023-03-02T07:24:56;101479.34;;;0.29;64.13
11643;BME280;5877;50.930;6.918;2023-03-02T07:29:48;101616.66;;;4.30;54.21
11643;BME280;5877;50.930;6.918;2023-03-02T07:34:40;101616.19;;;6.67;47.19
11643;BME280;5877;50.930;6.918;2023-03-02T07:39:32;101481.69;;;7.36;42.54
11643;BME280;5877;50.930;6.918;2023-03-02T07:44:23;101593.88;;;9.07;40.00
11643;BME280;5877;50.930;6.918;2023-03-02T07:49:15;101618.41;;;10.18;37.58
11643;BME280;5877;50.930;6.918;2023-03-02T07:54:07;101324.19;;;8.93;35.49
11643;BME280;5877;50.930;6.918;2023-03-02T07:58:59;101524.81;;;10.67;35.16
11643;BME280;5877;50.930;6.918;2023-03-02T08:03:50;101615.47;;;11.68;32.80
11643;BME280;5877;50.930;6.918;2023-03-02T08:08:42;101609.53;;;11.88;31.84
11643;BME280;5877;50.930;6.918;2023-03-02T08:13:34;101612.28;;;12.21;30.99
11643;BME280;5877;50.930;6.918;2023-03-02T08:18:26;101406.84;;;11.42;30.19
11643;BME280;5877;50.930;6.918;2023-03-02T08:23:18;101490.34;;;11.94;29.88
11643;BME280;5877;50.930;6.918;2023-03-02T08:28:10;101618.06;;;12.57;29.78
11643;BME280;5877;50.930;6.918;2023-03-02T08:33:02;101073.44;;;8.67;30.60
11643;BME280;5877;50.930;6.918;2023-03-02T08:37:57;101612.22;;;12.75;29.50
11643;BME280;5877;50.930;6.918;2023-03-02T08:42:50;101576.91;;;12.50;29.57
11643;BME280;5877;50.930;6.918;2023-03-02T08:47:47;101578.97;;;12.61;28.89
11643;BME280;5877;50.930;6.918;2023-03-02T08:52:41;101580.19;;;13.18;28.92
11643;BME280;5877;50.930;6.918;2023-03-02T08:57:34;101453.16;;;12.70;28.04
11643;BME280;5877;50.930;6.918;2023-03-02T09:02:25;101421.34;;;12.58;27.74
11643;BME280;5877;50.930;6.918;2023-03-02T09:07:17;101527.09;;;12.68;27.87
11643;BME280;5877;50.930;6.918;2023-03-02T09:12:09;100980.25;;;9.28;28.68
11643;BME280;5877;50.930;6.918;2023-03-02T09:17:01;101598.59;;;12.52;29.36
11643;BME280;5877;50.930;6.918;2023-03-02T09:21:52;101119.34;;;9.68;29.79
11643;BME280;5877;50.930;6.918;2023-03-02T09:26:44;101485.50;;;11.91;29.88
11643;BME280;5877;50.930;6.918;2023-03-02T09:31:36;101030.09;;;8.58;30.00
11643;BME280;5877;50.930;6.918;2023-03-02T09:36:29;101558.84;;;11.73;30.13
11643;BME280;5877;50.930;6.918;2023-03-02T09:47:04;101436.25;;;10.05;31.75
11643;BME280;5877;50.930;6.918;2023-03-02T09:57:26;101571.13;;;9.96;33.52
11643;BME280;5877;50.930;6.918;2023-03-02T10:02:29;101234.69;;;7.94;33.39
11643;BME280;5877;50.930;6.918;2023-03-02T10:07:34;101452.38;;;9.01;33.25
11643;BME280;5877;50.930;6.918;2023-03-02T10:12:55;101567.06;;;9.94;34.17
11643;BME280;5877;50.930;6.918;2023-03-02T10:18:07;101531.94;;;9.59;33.69
11643;BME280;5877;50.930;6.918;2023-03-02T10:23:25;101315.31;;;7.68;34.69
11643;BME280;5877;50.930;6.918;2023-03-02T10:28:21;101313.63;;;7.29;35.20
11643;BME280;5877;50.930;6.918;2023-03-02T10:33:17;101559.53;;;8.88;35.30
11643;BME280;5877;50.930;6.918;2023-03-02T10:38:15;101554.06;;;9.12;34.98
11643;BME280;5877;50.930;6.918;2023-03-02T10:43:17;101545.28;;;8.90;35.79
11643;BME280;5877;50.930;6.918;2023-03-02T10:48:12;101360.91;;;7.65;36.00
11643;BME280;5877;50.930;6.918;2023-03-02T10:53:17;101178.25;;;6.41;36.11
11643;BME280;5877;50.930;6.918;2023-03-02T10:58:29;101526.50;;;9.01;36.51
11643;BME280;5877;50.930;6.918;2023-03-02T11:03:22;101533.19;;;9.04;35.78
11643;BME280;5877;50.930;6.918;2023-03-02T11:08:19;101387.38;;;8.23;36.09
11643;BME280;5877;50.930;6.918;2023-03-02T11:28:23;101333.94;;;8.02;36.45
11643;BME280;5877;50.930;6.918;2023-03-02T11:38:31;101438.13;;;8.89;36.57
11643;BME280;5877;50.930;6.918;2023-03-02T11:43:25;101134.72;;;7.33;35.68
11643;BME280;5877;50.930;6.918;2023-03-02T11:48:32;101496.50;;;9.63;36.15
11643;BME280;5877;50.930;6.918;2023-03-02T11:53:49;101485.94;;;9.56;36.15
11643;BME280;5877;50.930;6.918;2023-03-02T11:58:44;101327.28;;;8.82;37.01
11643;BME280;5877;50.930;6.918;2023-03-02T12:03:40;101482.47;;;10.06;36.17
11643;BME280;5877;50.930;6.918;2023-03-02T12:08:37;101484.41;;;10.19;35.67
11643;BME280;5877;50.930;6.918;2023-03-02T12:13:36;101482.75;;;10.33;35.55
11643;BME280;5877;50.930;6.918;2023-03-02T12:18:40;101018.22;;;7.47;35.29
11643;BME280;5877;50.930;6.918;2023-03-02T12:23:39;101243.03;;;8.93;35.07
11643;BME280;5877;50.930;6.918;2023-03-02T12:28:37;101382.88;;;9.92;34.89
11643;BME280;5877;50.930;6.918;2023-03-02T12:33:29;101456.69;;;10.59;34.75
11643;BME280;5877;50.930;6.918;2023-03-02T12:38:32;101374.38;;;10.32;34.52
11643;BME280;5877;50.930;6.918;2023-03-02T12:54:03;101431.94;;;11.03;33.19
11643;BME280;5877;50.930;6.918;2023-03-02T12:58:55;101367.38;;;10.81;33.94
11643;BME280;5877;50.930;6.918;2023-03-02T13:03:47;101269.63;;;10.37;33.55
11643;BME280;5877;50.930;6.918;2023-03-02T13:08:42;101415.56;;;11.55;32.50
11643;BME280;5877;50.930;6.918;2023-03-02T13:13:39;101205.69;;;10.11;32.87
11643;BME280;5877;50.930;6.918;2023-03-02T13:18:34;101394.94;;;11.59;32.58
11643;BME280;5877;50.930;6.918;2023-03-02T13:23:29;101389.72;;;11.72;32.71
11643;BME280;5877;50.930;6.918;2023-03-02T13:28:36;101377.22;;;11.81;32.69
11643;BME280;5877;50.930;6.918;2023-03-02T13:33:30;101383.28;;;11.81;32.26
11643;BME280;5877;50.930;6.918;2023-03-02T13:38:25;101237.09;;;10.86;31.72
11643;BME280;5877;50.930;6.918;2023-03-02T13:48:16;101022.34;;;9.68;31.82
11643;BME280;5877;50.930;6.918;2023-03-02T13:53:09;101041.47;;;10.09;32.03
11643;BME280;5877;50.930;6.918;2023-03-02T13:58:01;101053.22;;;10.20;30.97
11643;BME280;5877;50.930;6.918;2023-03-02T14:02:54;101355.38;;;12.07;31.63
11643;BME280;5877;50.930;6.918;2023-03-02T14:07:46;101278.03;;;11.42;31.47
11643;BME280;5877;50.930;6.918;2023-03-02T14:12:40;101267.31;;;11.56;31.54
11643;BME280;5877;50.930;6.918;2023-03-02T14:17:33;101345.66;;;12.14;31.19
11643;BME280;5877;50.930;6.918;2023-03-02T14:22:28;101340.41;;;12.07;31.21
11643;BME280;5877;50.930;6.918;2023-03-02T14:27:21;101306.81;;;11.89;30.86
11643;BME280;5877;50.930;6.918;2023-03-02T14:32:15;101197.13;;;11.11;31.04
11643;BME280;5877;50.930;6.918;2023-03-02T14:37:11;101318.50;;;11.74;31.47
11643;BME280;5877;50.930;6.918;2023-03-02T14:42:05;101120.47;;;10.34;31.31
11643;BME280;5877;50.930;6.918;2023-03-02T14:46:57;100995.34;;;9.74;31.74
11643;BME280;5877;50.930;6.918;2023-03-02T14:52:20;101319.75;;;11.78;31.29
11643;BME280;5877;50.930;6.918;2023-03-02T14:57:20;101309.66;;;11.88;31.22
11643;BME280;5877;50.930;6.918;2023-03-02T15:02:12;101037.34;;;9.87;31.13
11643;BME280;5877;50.930;6.918;2023-03-02T15:07:17;101280.47;;;11.43;31.00
11643;BME280;5877;50.930;6.918;2023-03-02T15:12:10;101256.97;;;11.15;31.65
11643;BME280;5877;50.930;6.918;2023-03-02T15:17:03;101206.97;;;10.82;31.21
11643;BME280;5877;50.930;6.918;2023-03-02T15:21:55;101300.06;;;11.34;31.95
11643;BME280;5877;50.930;6.918;2023-03-02T15:26:49;100862.22;;;8.54;32.03
11643;BME280;5877;50.930;6.918;2023-03-02T15:31:42;101293.75;;;11.22;32.21
11643;BME280;5877;50.930;6.918;2023-03-02T15:36:34;101204.66;;;10.46;31.38
11643;BME280;5877;50.930;6.918;2023-03-02T15:41:25;101266.13;;;10.71;32.10
11643;BME280;5877;50.930;6.918;2023-03-02T15:46:18;100814.22;;;7.85;31.82
11643;BME280;5877;50.930;6.918;2023-03-02T15:51:10;101220.56;;;10.31;32.09
11643;BME280;5877;50.930;6.918;2023-03-02T15:56:09;101304.91;;;10.69;32.44
11643;BME280;5877;50.930;6.918;2023-03-02T16:01:11;101245.69;;;10.19;32.29
11643;BME280;5877;50.930;6.918;2023-03-02T16:06:03;101313.47;;;10.50;32.35
11643;BME280;5877;50.930;6.918;2023-03-02T16:11:00;101313.25;;;10.38;32.67
11643;BME280;5877;50.930;6.918;2023-03-02T16:15:53;100952.59;;;7.93;32.96
11643;BME280;5877;50.930;6.918;2023-03-02T16:20:45;101011.50;;;8.10;32.90
11643;BME280;5877;50.930;6.918;2023-03-02T16:25:38;101043.31;;;8.13;33.25
11643;BME280;5877;50.930;6.918;2023-03-02T16:30:32;101186.88;;;8.95;33.37
11643;BME280;5877;50.930;6.918;2023-03-02T16:35:24;101277.84;;;9.29;33.58
11643;BME280;5877;50.930;6.918;2023-03-02T16:40:16;101335.13;;;9.54;34.33
11643;BME280;5877;50.930;6.918;2023-03-02T16:45:08;101200.19;;;8.43;34.66
11643;BME280;5877;50.930;6.918;2023-03-02T16:50:02;101340.84;;;9.21;35.11
11643;BME280;5877;50.930;6.918;2023-03-02T16:54:53;101366.41;;;9.04;35.86
11643;BME280;5877;50.930;6.918;2023-03-02T16:59:45;101336.13;;;8.66;36.81
11643;BME280;5877;50.930;6.918;2023-03-02T17:04:37;101217.81;;;7.82;36.97
11643;BME280;5877;50.930;6.918;2023-03-02T17:09:30;101227.34;;;7.45;36.80
11643;BME280;5877;50.930;6.918;2023-03-02T17:14:21;101157.78;;;7.07;37.24
11643;BME280;5877;50.930;6.918;2023-03-02T17:19:13;101124.50;;;6.63;37.92
11643;BME280;5877;50.930;6.918;2023-03-02T17:24:05;101388.31;;;8.07;38.43
11643;BME280;5877;50.930;6.918;2023-03-02T17:28:57;101030.56;;;5.55;39.03
11643;BME280;5877;50.930;6.918;2023-03-02T17:33:49;101138.50;;;6.00;39.81
11643;BME280;5877;50.930;6.918;2023-03-02T17:38:41;101059.13;;;5.25;40.05
11643;BME280;5877;50.930;6.918;2023-03-02T17:43:34;100951.16;;;4.24;40.45
11643;BME280;5877;50.930;6.918;2023-03-02T17:48:26;101079.28;;;5.22;40.54
11643;BME280;5877;50.930;6.918;2023-03-02T17:53:19;101405.50;;;7.33;40.67
11643;BME280;5877;50.930;6.918;2023-03-02T17:58:11;101431.28;;;7.28;41.40
11643;BME280;5877;50.930;6.918;2023-03-02T18:03:02;101437.63;;;7.33;42.09
11643;BME280;5877;50.930;6.918;2023-03-02T18:07:54;101237.53;;;5.76;42.21
11643;BME280;5877;50.930;6.918;2023-03-02T18:12:47;101141.91;;;5.21;42.33
11643;BME280;5877;50.930;6.918;2023-03-02T18:17:43;101348.41;;;6.35;43.17
11643;BME280;5877;50.930;6.918;2023-03-02T18:22:35;101464.16;;;7.06;43.17
11643;BME280;5877;50.930;6.918;2023-03-02T18:27:26;101201.13;;;5.19;44.17
11643;BME280;5877;50.930;6.918;2023-03-02T18:32:18;101476.94;;;6.68;45.21
11643;BME280;5877;50.930;6.918;2023-03-02T18:37:10;101170.66;;;4.63;45.28
11643;BME280;5877;50.930;6.918;2023-03-02T18:42:04;101482.19;;;6.60;45.98
11643;BME280;5877;50.930;6.918;2023-03-02T18:46:56;101424.00;;;5.95;46.13
11643;BME280;5877;50.930;6.918;2023-03-02T18:51:49;101366.94;;;5.59;46.98
11643;BME280;5877;50.930;6.918;2023-03-02T18:56:41;101308.28;;;5.06;47.41
11643;BME280;5877;50.930;6.918;2023-03-02T19:01:33;101341.81;;;5.17;48.79
11643;BME280;5877;50.930;6.918;2023-03-02T19:06:24;101511.47;;;6.13;48.96
11643;BME280;5877;50.930;6.918;2023-03-02T19:11:16;101273.09;;;4.44;49.00
11643;BME280;5877;50.930;6.918;2023-03-02T19:16:08;101393.94;;;5.00;49.43
11643;BME280;5877;50.930;6.918;2023-03-02T19:21:00;101270.81;;;4.15;50.04
11643;BME280;5877;50.930;6.918;2023-03-02T19:25:52;101515.81;;;5.54;50.97
11643;BME280;5877;50.930;6.918;2023-03-02T19:30:45;101341.94;;;4.40;52.17
11643;BME280;5877;50.930;6.918;2023-03-02T19:35:37;101526.66;;;5.42;53.37
11643;BME280;5877;50.930;6.918;2023-03-02T19:40:29;101390.88;;;4.44;55.64
11643;BME280;5877;50.930;6.918;2023-03-02T19:45:24;101547.72;;;5.57;56.22
11643;BME280;5877;50.930;6.918;2023-03-02T19:50:20;101127.28;;;2.83;57.50
11643;BME280;5877;50.930;6.918;2023-03-02T19:55:13;101392.47;;;4.19;57.57
11643;BME280;5877;50.930;6.918;2023-03-02T20:00:11;101482.41;;;4.56;57.84
11643;BME280;5877;50.930;6.918;2023-03-02T20:05:04;101558.22;;;4.87;58.55
11643;BME280;5877;50.930;6.918;2023-03-02T20:09:56;101171.28;;;2.30;59.50
11643;BME280;5877;50.930;6.918;2023-03-02T20:14:47;101551.72;;;4.65;60.57
11643;BME280;5877;50.930;6.918;2023-03-02T20:19:41;101128.72;;;1.78;61.23
11643;BME280;5877;50.930;6.918;2023-03-02T20:24:38;101560.19;;;4.49;62.26
11643;BME280;5877;50.930;6.918;2023-03-02T20:29:30;101466.59;;;3.78;62.93
11643;BME280;5877;50.930;6.918;2023-03-02T20:34:23;101573.59;;;4.27;63.76
11643;BME280;5877;50.930;6.918;2023-03-02T20:39:22;101574.47;;;4.18;64.11
11643;BME280;5877;50.930;6.918;2023-03-02T20:44:16;101579.59;;;4.10;64.83
11643;BME280;5877;50.930;6.918;2023-03-02T20:49:10;101585.66;;;4.01;65.51
11643;BME280;5877;50.930;6.918;2023-03-02T20:54:06;101314.16;;;2.25;65.57
11643;BME280;5877;50.930;6.918;2023-03-02T20:58:59;101378.03;;;2.54;66.18
11643;BME280;5877;50.930;6.918;2023-03-02T21:03:52;101345.22;;;2.35;66.50
11643;BME280;5877;50.930;6.918;2023-03-02T21:08:43;101574.91;;;3.58;67.30
11643;BME280;5877;50.930;6.918;2023-03-02T21:13:35;101487.44;;;2.94;68.21
11643;BME280;5877;50.930;6.918;2023-03-02T21:18:29;101409.97;;;2.35;68.10
11643;BME280;5877;50.930;6.918;2023-03-02T21:23:21;101348.53;;;1.89;68.61
11643;BME280;5877;50.930;6.918;2023-03-02T21:28:13;101590.97;;;3.35;69.19
11643;BME280;5877;50.930;6.918;2023-03-02T21:33:05;101411.75;;;2.06;69.19
11643;BME280;5877;50.930;6.918;2023-03-02T21:37:58;101385.59;;;1.99;69.52
11643;BME280;5877;50.930;6.918;2023-03-02T21:42:55;101586.75;;;3.14;69.43
11643;BME280;5877;50.930;6.918;2023-03-02T21:47:47;101479.91;;;2.35;70.21
11643;BME280;5877;50.930;6.918;2023-03-02T21:52:39;101584.47;;;3.02;70.59
11643;BME280;5877;50.930;6.918;2023-03-02T21:57:31;101461.63;;;2.17;70.99
11643;BME280;5877;50.930;6.918;2023-03-02T22:02:23;101220.03;;;0.53;70.86
11643;BME280;5877;50.930;6.918;2023-03-02T22:07:14;101584.63;;;2.81;72.14
11643;BME280;5877;50.930;6.918;2023-03-02T22:12:11;101225.56;;;0.39;72.14
11643;BME280;5877;50.930;6.918;2023-03-02T22:17:18;101461.31;;;1.82;72.52
11643;BME280;5877;50.930;6.918;2023-03-02T22:22:26;101214.69;;;0.35;72.27
11643;BME280;5877;50.930;6.918;2023-03-02T22:27:28;101466.09;;;1.77;72.82
11643;BME280;5877;50.930;6.918;2023-03-02T22:32:24;101411.34;;;1.22;73.35
11643;BME280;5877;50.930;6.918;2023-03-02T22:37:21;101419.25;;;1.30;73.89
11643;BME280;5877;50.930;6.918;2023-03-02T22:47:14;101572.03;;;2.18;74.24
11643;BME280;5877;50.930;6.918;2023-03-02T22:52:20;101311.72;;;0.38;74.55
11643;BME280;5877;50.930;6.918;2023-03-02T22:57:28;101437.28;;;1.11;75.05
11643;BME280;5877;50.930;6.918;2023-03-02T23:02:20;101423.53;;;0.80;75.17
11643;BME280;5877;50.930;6.918;2023-03-02T23:07:20;101400.66;;;0.75;75.39
11643;BME280;5877;50.930;6.918;2023-03-02T23:17:12;101604.31;;;1.74;76.21
11643;BME280;5877;50.930;6.918;2023-03-02T23:22:05;101339.91;;;-0.01;76.47
11643;BME280;5877;50.930;6.918;2023-03-02T23:26:57;101336.56;;;-0.13;77.11
11643;BME280;5877;50.930;6.918;2023-03-02T23:31:49;101411.84;;;0.34;77.19
11643;BME280;5877;50.930;6.918;2023-03-02T23:36:41;101500.88;;;0.72;77.47
11643;BME280;5877;50.930;6.918;2023-03-02T23:41:34;101588.38;;;1.18;77.70
11643;BME280;5877;50.930;6.918;2023-03-02T23:46:26;101395.16;;;-0.04;78.10
11643;BME280;5877;50.930;6.918;2023-03-02T23:51:17;101610.31;;;1.23;78.29
11643;BME280;5877;50.930;6.918;2023-03-02T23:56:10;101226.31;;;-1.16;78.30
